createdAt,value
2023-04-12T00:01:19.095Z,99295.41
2023-04-12T00:03:54.520Z,99277.16
2023-04-12T00:06:25.813Z,99286.44
2023-04-12T00:09:08.619Z,99275.63
2023-04-12T00:11:44.658Z,99279.81
2023-04-12T00:14:21.829Z,99277.06
2023-04-12T00:16:52.574Z,99262.63
2023-04-12T00:19:21.798Z,99265.13
2023-04-12T00:21:52.641Z,99265.34
2023-04-12T00:24:31.188Z,99261.94
2023-04-12T00:27:02.332Z,99265.25
2023-04-12T00:29:40.601Z,99255.25
2023-04-12T00:32:22.088Z,99244.94
2023-04-12T00:34:51.447Z,99253.53
2023-04-12T00:37:24.318Z,99228.22
2023-04-12T00:40:03.870Z,99232.47
2023-04-12T00:42:32.429Z,99217.97
2023-04-12T00:45:09.750Z,99237.50
2023-04-12T00:47:43.023Z,99234.03
2023-04-12T00:50:13.533Z,99231.97
2023-04-12T00:52:46.899Z,99221.34
2023-04-12T00:55:22.624Z,99231.47
2023-04-12T00:58:00.337Z,99232.09
2023-04-12T01:00:30.276Z,99233.09
2023-04-12T01:03:02.550Z,99231.50
2023-04-12T01:05:39.594Z,99216.16
2023-04-12T01:08:21.204Z,99224.91
2023-04-12T01:11:10.205Z,99213.50
2023-04-12T01:13:43.533Z,99218.63
2023-04-12T01:16:29.231Z,99212.19
2023-04-12T01:19:03.841Z,99212.22
2023-04-12T01:21:44.609Z,99210.78
2023-04-12T01:24:24.736Z,99198.94
2023-04-12T01:27:02.791Z,99214.31
2023-04-12T01:29:34.865Z,99199.75
2023-04-12T01:32:09.954Z,99203.28
2023-04-12T01:34:49.256Z,99207.84
2023-04-12T01:37:20.475Z,99204.25
2023-04-12T01:39:50.280Z,99198.25
2023-04-12T01:42:20.854Z,99199.47
2023-04-12T01:44:52.435Z,99195.13
2023-04-12T01:47:23.637Z,99195.56
2023-04-12T01:50:01.423Z,99185.28
2023-04-12T01:52:33.742Z,99200.00
2023-04-12T01:55:04.828Z,99195.84
2023-04-12T01:57:35.281Z,99196.38
2023-04-12T02:00:11.287Z,99199.69
2023-04-12T02:02:48.645Z,99191.44
2023-04-12T02:05:22.038Z,99189.22
2023-04-12T02:07:53.853Z,99191.25
2023-04-12T02:10:36.757Z,99190.34
2023-04-12T02:13:07.399Z,99193.25
2023-04-12T02:15:47.444Z,99178.91
2023-04-12T02:18:19.742Z,99175.41
2023-04-12T02:20:50.277Z,99182.47
2023-04-12T02:23:27.339Z,99188.88
2023-04-12T02:25:58.323Z,99172.38
2023-04-12T02:28:30.430Z,99180.00
2023-04-12T02:31:10.157Z,99166.47
2023-04-12T02:33:42.534Z,99173.53
2023-04-12T02:36:15.211Z,99162.19
2023-04-12T02:38:51.049Z,99169.22
2023-04-12T02:41:23.470Z,99163.09
2023-04-12T02:43:53.025Z,99161.31
2023-04-12T02:46:31.027Z,99161.09
2023-04-12T02:49:05.909Z,99170.19
2023-04-12T02:51:42.817Z,99157.44
2023-04-12T02:54:12.822Z,99160.34
2023-04-12T02:57:11.316Z,99155.16
2023-04-12T02:59:46.930Z,99164.00
2023-04-12T03:02:57.093Z,99155.47
2023-04-12T03:05:32.027Z,99152.75
2023-04-12T03:08:03.242Z,99141.16
2023-04-12T03:10:42.763Z,99142.75
2023-04-12T03:13:21.154Z,99155.66
2023-04-12T03:15:58.474Z,99148.56
2023-04-12T03:18:37.892Z,99151.34
2023-04-12T03:21:09.909Z,99149.66
2023-04-12T03:23:38.380Z,99151.25
2023-04-12T03:26:20.738Z,99151.34
2023-04-12T03:29:05.276Z,99148.22
2023-04-12T03:31:43.951Z,99154.31
2023-04-12T03:34:17.027Z,99144.84
2023-04-12T03:36:51.745Z,99133.91
2023-04-12T03:39:48.632Z,99141.63
2023-04-12T03:42:32.950Z,99140.84
2023-04-12T03:45:18.571Z,99136.59
2023-04-12T03:47:55.950Z,99139.00
2023-04-12T03:50:25.744Z,99135.34
2023-04-12T03:52:58.422Z,99131.59
2023-04-12T03:55:37.988Z,99132.53
2023-04-12T03:58:08.353Z,99134.06
2023-04-12T04:00:44.957Z,99136.94
2023-04-12T04:03:19.407Z,99133.53
2023-04-12T04:06:05.493Z,99135.59
2023-04-12T04:08:34.632Z,99133.03
2023-04-12T04:11:05.420Z,99126.69
2023-04-12T04:13:41.415Z,99135.06
2023-04-12T04:16:23.804Z,99129.50
2023-04-12T04:18:53.436Z,99133.53
2023-04-12T04:21:30.886Z,99128.50
2023-04-12T04:24:04.957Z,99126.63
2023-04-12T04:26:39.414Z,99124.13
2023-04-12T04:29:28.168Z,99121.22
2023-04-12T04:32:25.284Z,99119.16
2023-04-12T04:35:16.901Z,99121.38
2023-04-12T04:38:30.832Z,99121.22
2023-04-12T04:41:09.212Z,99121.81
2023-04-12T04:44:03.696Z,99136.69
2023-04-12T04:47:01.100Z,99133.53
2023-04-12T04:49:33.967Z,99131.25
2023-04-12T04:52:23.400Z,99123.31
2023-04-12T04:55:17.176Z,99122.56
2023-04-12T04:57:52.927Z,99127.94
2023-04-12T05:00:30.657Z,99129.88
2023-04-12T05:03:03.691Z,99123.41
2023-04-12T05:05:33.634Z,99131.53
2023-04-12T05:08:10.067Z,99132.84
2023-04-12T05:10:48.848Z,99137.44
2023-04-12T05:13:19.757Z,99142.66
2023-04-12T05:15:49.715Z,99147.78
2023-04-12T05:18:27.232Z,99151.69
2023-04-12T05:21:01.961Z,99153.34
2023-04-12T05:23:38.715Z,99159.72
2023-04-12T05:26:21.815Z,99161.31
2023-04-12T05:28:53.406Z,99155.03
2023-04-12T05:31:25.984Z,99156.41
2023-04-12T05:33:57.050Z,99167.03
2023-04-12T05:36:42.567Z,99162.84
2023-04-12T05:39:20.858Z,99160.06
2023-04-12T05:42:07.103Z,99160.66
2023-04-12T05:44:41.787Z,99159.84
2023-04-12T05:47:18.080Z,99166.22
2023-04-12T05:49:50.117Z,99170.81
2023-04-12T05:52:29.205Z,99164.03
2023-04-12T05:54:58.841Z,99167.16
2023-04-12T05:57:38.258Z,99165.94
2023-04-12T06:00:13.484Z,99159.94
2023-04-12T06:02:47.179Z,99161.59
2023-04-12T06:05:21.976Z,99164.84
2023-04-12T06:07:52.703Z,99154.19
2023-04-12T06:10:26.561Z,99165.94
2023-04-12T06:13:05.130Z,99171.97
2023-04-12T06:15:37.262Z,99158.53
2023-04-12T06:18:10.397Z,99163.56
2023-04-12T06:20:49.266Z,99169.19
2023-04-12T06:23:23.348Z,99169.59
2023-04-12T06:25:56.664Z,99158.81
2023-04-12T06:28:35.136Z,99150.28
2023-04-12T06:31:12.412Z,99166.34
2023-04-12T06:33:49.717Z,99159.38
2023-04-12T06:36:21.630Z,99160.06
2023-04-12T06:38:59.493Z,99155.16
2023-04-12T06:41:28.717Z,99155.31
2023-04-12T06:44:06.239Z,99159.34
2023-04-12T06:46:37.444Z,99155.59
2023-04-12T06:49:09.092Z,99141.97
2023-04-12T06:51:53.735Z,99149.50
2023-04-12T06:54:29.821Z,99147.16
2023-04-12T06:56:59.101Z,99144.16
2023-04-12T06:59:32.958Z,99141.50
2023-04-12T07:02:10.156Z,99134.41
2023-04-12T07:04:41.199Z,99132.50
2023-04-12T07:07:11.493Z,99134.56
2023-04-12T07:09:47.515Z,99126.97
2023-04-12T07:12:18.320Z,99119.84
2023-04-12T07:14:52.722Z,99116.00
2023-04-12T07:17:22.616Z,99104.19
2023-04-12T07:19:56.464Z,99106.41
2023-04-12T07:22:26.180Z,99096.56
2023-04-12T07:25:07.544Z,99102.25
2023-04-12T07:27:41.608Z,99100.94
2023-04-12T07:30:19.562Z,99101.50
2023-04-12T07:32:51.831Z,99096.41
2023-04-12T07:35:20.689Z,99093.16
2023-04-12T07:37:54.397Z,99092.72
2023-04-12T07:40:32.075Z,99085.81
2023-04-12T07:43:01.708Z,99085.59
2023-04-12T07:45:32.180Z,99070.88
2023-04-12T07:48:02.945Z,99073.50
2023-04-12T07:50:42.092Z,99072.19
2023-04-12T07:53:23.026Z,99063.63
2023-04-12T07:55:57.120Z,99065.84
2023-04-12T07:58:34.851Z,99064.59
2023-04-12T08:01:10.444Z,99058.63
2023-04-12T08:03:43.277Z,99055.13
2023-04-12T08:06:12.601Z,99063.41
2023-04-12T08:08:44.184Z,99058.53
2023-04-12T08:11:23.088Z,99050.28
2023-04-12T08:13:53.810Z,99044.88
2023-04-12T08:16:39.585Z,99043.88
2023-04-12T08:19:10.763Z,99041.94
2023-04-12T08:21:42.063Z,99044.09
2023-04-12T08:24:13.207Z,99046.75
2023-04-12T08:26:46.200Z,99052.84
2023-04-12T08:29:26.304Z,99052.16
2023-04-12T08:32:00.859Z,99049.00
2023-04-12T08:34:30.194Z,99049.69
2023-04-12T08:37:01.529Z,99031.13
2023-04-12T08:39:32.983Z,99029.09
2023-04-12T08:42:06.851Z,99025.34
2023-04-12T08:44:40.385Z,99014.06
2023-04-12T08:47:25.927Z,99012.97
2023-04-12T08:49:55.167Z,99010.69
2023-04-12T08:52:35.701Z,99008.25
2023-04-12T08:55:05.292Z,99016.13
2023-04-12T08:57:36.789Z,98996.47
2023-04-12T09:00:21.023Z,98988.69
2023-04-12T09:03:08.766Z,98979.56
2023-04-12T09:05:49.240Z,98988.75
2023-04-12T09:08:21.006Z,98989.28
2023-04-12T09:10:49.734Z,98989.78
2023-04-12T09:13:20.120Z,98977.53
2023-04-12T09:15:51.884Z,98976.22
2023-04-12T09:18:30.013Z,98961.53
2023-04-12T09:21:09.390Z,98959.66
2023-04-12T09:23:41.138Z,98950.31
2023-04-12T09:26:18.611Z,98953.13
2023-04-12T09:28:47.988Z,98945.16
2023-04-12T09:31:18.644Z,98939.44
2023-04-12T09:33:55.890Z,98936.59
2023-04-12T09:36:55.347Z,98935.16
2023-04-12T09:39:34.357Z,98932.16
2023-04-12T09:42:18.050Z,98919.00
2023-04-12T09:45:05.224Z,98919.00
2023-04-12T09:47:47.893Z,98916.91
2023-04-12T09:50:26.130Z,98914.16
2023-04-12T09:52:56.074Z,98901.28
2023-04-12T09:55:28.730Z,98903.59
2023-04-12T09:57:58.144Z,98896.44
2023-04-12T10:00:32.748Z,98882.16
2023-04-12T10:03:03.204Z,98887.78
2023-04-12T10:05:37.742Z,98887.06
2023-04-12T10:08:09.560Z,98889.84
2023-04-12T10:10:51.387Z,98879.88
2023-04-12T10:13:32.066Z,98883.25
2023-04-12T10:16:03.882Z,98869.25
2023-04-12T10:18:45.149Z,98856.31
2023-04-12T10:21:20.398Z,98859.66
2023-04-12T10:23:48.981Z,98860.16
2023-04-12T10:26:21.085Z,98855.56
2023-04-12T10:29:32.428Z,98858.38
2023-04-12T10:32:22.583Z,98841.63
2023-04-12T10:34:56.075Z,98847.34
2023-04-12T10:38:10.015Z,98851.59
2023-04-12T10:40:53.071Z,98836.44
2023-04-12T10:43:32.895Z,98830.28
2023-04-12T10:46:11.272Z,98824.94
2023-04-12T10:48:52.091Z,98827.00
2023-04-12T10:51:29.439Z,98816.03
2023-04-12T10:54:48.338Z,98819.56
2023-04-12T10:57:51.959Z,98806.34
2023-04-12T11:00:24.999Z,98806.31
2023-04-12T11:03:07.644Z,98810.34
2023-04-12T11:06:06.756Z,98801.47
2023-04-12T11:09:08.737Z,98787.44
2023-04-12T11:11:49.952Z,98793.19
2023-04-12T11:14:27.413Z,98790.72
2023-04-12T11:17:30.312Z,98783.66
2023-04-12T11:20:08.412Z,98774.97
2023-04-12T11:22:38.038Z,98783.16
2023-04-12T11:25:20.547Z,98779.19
2023-04-12T11:28:00.666Z,98774.16
2023-04-12T11:30:34.074Z,98768.31
2023-04-12T11:33:09.198Z,98777.84
2023-04-12T11:35:40.756Z,98764.50
2023-04-12T11:38:11.548Z,98769.00
2023-04-12T11:40:42.812Z,98756.78
2023-04-12T11:43:23.158Z,98753.53
2023-04-12T11:46:11.859Z,98743.09
2023-04-12T11:48:45.988Z,98740.28
2023-04-12T11:51:32.366Z,98732.84
2023-04-12T11:54:05.468Z,98725.09
2023-04-12T11:56:38.301Z,98722.19
2023-04-12T11:59:13.351Z,98727.56
2023-04-12T12:01:51.449Z,98724.38
2023-04-12T12:04:22.551Z,98713.25
2023-04-12T12:06:51.509Z,98721.25
2023-04-12T12:09:23.776Z,98718.81
2023-04-12T12:12:05.821Z,98718.03
2023-04-12T12:14:37.272Z,98724.44
2023-04-12T12:17:11.735Z,98697.44
2023-04-12T12:19:55.116Z,98712.44
2023-04-12T12:22:24.350Z,98695.66
2023-04-12T12:25:01.589Z,98686.78
2023-04-12T12:27:37.952Z,98687.63
2023-04-12T12:30:19.873Z,98671.66
2023-04-12T12:32:52.379Z,98679.97
2023-04-12T12:35:22.562Z,98672.25
2023-04-12T12:38:03.275Z,98666.03
2023-04-12T12:40:33.977Z,98669.72
2023-04-12T12:43:06.971Z,98669.91
2023-04-12T12:45:51.484Z,98663.75
2023-04-12T12:48:23.490Z,98654.41
2023-04-12T12:50:51.978Z,98649.81
2023-04-12T12:53:24.487Z,98648.13
2023-04-12T12:56:00.554Z,98645.34
2023-04-12T12:58:43.684Z,98638.56
2023-04-12T13:01:18.441Z,98636.28
2023-04-12T13:03:51.223Z,98627.72
2023-04-12T13:06:24.460Z,98630.88
2023-04-12T13:08:55.376Z,98627.53
2023-04-12T13:11:32.614Z,98623.75
2023-04-12T13:14:22.979Z,98619.94
2023-04-12T13:16:55.067Z,98629.06
2023-04-12T13:19:29.354Z,98603.34
2023-04-12T13:22:08.265Z,98605.50
2023-04-12T13:24:50.556Z,98601.53
2023-04-12T13:27:22.464Z,98600.06
2023-04-12T13:29:59.869Z,98600.19
2023-04-12T13:32:36.878Z,98598.34
2023-04-12T13:35:11.459Z,98595.13
2023-04-12T13:37:39.662Z,98595.84
2023-04-12T13:40:12.868Z,98588.44
2023-04-12T13:42:44.327Z,98586.09
2023-04-12T13:45:14.214Z,98579.31
2023-04-12T13:47:45.567Z,98569.03
2023-04-12T13:50:18.327Z,98573.56
2023-04-12T13:52:49.394Z,98565.75
2023-04-12T13:55:21.684Z,98565.66
2023-04-12T13:57:51.081Z,98559.56
2023-04-12T14:00:29.657Z,98563.69
2023-04-12T14:03:09.379Z,98561.69
2023-04-12T14:05:40.548Z,98570.50
2023-04-12T14:08:17.384Z,98555.63
2023-04-12T14:10:50.504Z,98553.13
2023-04-12T14:13:22.403Z,98556.59
2023-04-12T14:16:00.032Z,98552.06
2023-04-12T14:18:31.001Z,98552.44
2023-04-12T14:21:03.827Z,98543.13
2023-04-12T14:23:44.455Z,98543.25
2023-04-12T14:26:17.679Z,98539.91
2023-04-12T14:29:02.990Z,98529.84
2023-04-12T14:31:37.107Z,98529.63
2023-04-12T14:34:10.833Z,98521.94
2023-04-12T14:36:42.639Z,98527.88
2023-04-12T14:39:25.843Z,98514.09
2023-04-12T14:41:57.358Z,98516.59
2023-04-12T14:44:34.980Z,98515.94
2023-04-12T14:47:07.148Z,98515.03
2023-04-12T14:49:52.893Z,98507.47
2023-04-12T14:52:26.179Z,98506.13
2023-04-12T14:54:54.674Z,98501.19
2023-04-12T14:57:39.216Z,98500.75
2023-04-12T15:00:24.675Z,98492.88
2023-04-12T15:02:56.068Z,98494.25
2023-04-12T15:05:27.852Z,98490.13
2023-04-12T15:08:05.419Z,98487.50
2023-04-12T15:10:43.604Z,98474.75
2023-04-12T15:13:18.070Z,98479.97
2023-04-12T15:15:55.359Z,98474.72
2023-04-12T15:18:28.155Z,98470.75
2023-04-12T15:21:08.365Z,98456.94
2023-04-12T15:23:40.043Z,98466.81
2023-04-12T15:26:09.114Z,98464.38
2023-04-12T15:28:50.902Z,98457.19
2023-04-12T15:31:25.128Z,98455.41
2023-04-12T15:34:02.693Z,98454.53
2023-04-12T15:36:38.818Z,98460.19
2023-04-12T15:39:11.088Z,98470.09
2023-04-12T15:41:46.553Z,98463.78
2023-04-12T15:44:17.137Z,98461.94
2023-04-12T15:46:53.349Z,98457.75
2023-04-12T15:49:30.471Z,98457.00
2023-04-12T15:52:05.097Z,98461.03
2023-04-12T15:54:34.123Z,98452.13
2023-04-12T15:57:09.833Z,98449.84
2023-04-12T15:59:44.087Z,98446.66
2023-04-12T16:02:12.309Z,98438.41
2023-04-12T16:04:44.523Z,98446.78
2023-04-12T16:07:19.779Z,98446.56
2023-04-12T16:09:50.349Z,98445.66
2023-04-12T16:12:20.430Z,98448.22
2023-04-12T16:14:52.028Z,98437.63
2023-04-12T16:17:22.820Z,98446.25
2023-04-12T16:20:00.976Z,98444.19
2023-04-12T16:22:41.270Z,98437.31
2023-04-12T16:25:14.571Z,98432.53
2023-04-12T16:27:51.045Z,98432.09
2023-04-12T16:30:28.527Z,98433.31
2023-04-12T16:32:59.345Z,98424.88
2023-04-12T16:35:31.269Z,98419.28
2023-04-12T16:38:02.508Z,98411.16
2023-04-12T16:40:38.994Z,98409.13
2023-04-12T16:43:15.567Z,98409.69
2023-04-12T16:45:47.729Z,98405.94
2023-04-12T16:48:22.648Z,98396.97
2023-04-12T16:50:54.450Z,98406.34
2023-04-12T16:53:30.760Z,98401.78
2023-04-12T16:56:10.570Z,98401.69
2023-04-12T16:58:41.326Z,98399.22
2023-04-12T17:01:22.309Z,98405.00
2023-04-12T17:03:53.394Z,98393.00
2023-04-12T17:06:23.481Z,98400.63
2023-04-12T17:09:10.149Z,98390.28
2023-04-12T17:11:43.468Z,98397.88
2023-04-12T17:14:17.180Z,98393.53
2023-04-12T17:16:58.052Z,98399.09
2023-04-12T17:19:27.033Z,98400.88
2023-04-12T17:24:43.696Z,98403.56
2023-04-12T17:27:18.074Z,98407.53
2023-04-12T17:30:05.553Z,98413.00
2023-04-12T17:32:49.509Z,98415.81
2023-04-12T17:35:22.801Z,98417.84
2023-04-12T17:37:58.495Z,98423.47
2023-04-12T17:40:56.682Z,98417.06
2023-04-12T17:43:33.697Z,98419.63
2023-04-12T17:46:11.211Z,98416.75
2023-04-12T17:48:42.673Z,98418.41
2023-04-12T17:51:20.888Z,98416.19
2023-04-12T17:53:50.545Z,98414.63
2023-04-12T17:56:25.546Z,98416.09
2023-04-12T17:59:02.666Z,98406.59
2023-04-12T18:01:44.900Z,98410.41
2023-04-12T18:04:20.861Z,98409.19
2023-04-12T18:06:52.696Z,98397.47
2023-04-12T18:09:26.892Z,98382.97
2023-04-12T18:12:04.639Z,98370.59
2023-04-12T18:14:50.698Z,98378.00
2023-04-12T18:17:27.453Z,98382.81
2023-04-12T18:20:02.837Z,98371.09
2023-04-12T18:22:36.580Z,98386.16
2023-04-12T18:25:19.251Z,98384.88
2023-04-12T18:28:13.787Z,98385.69
2023-04-12T18:31:00.691Z,98380.44
2023-04-12T18:33:40.031Z,98383.97
2023-04-12T18:36:14.289Z,98392.38
2023-04-12T18:39:01.533Z,98393.00
2023-04-12T18:41:49.581Z,98392.56
2023-04-12T18:44:23.086Z,98394.78
2023-04-12T18:46:54.368Z,98389.13
2023-04-12T18:49:25.304Z,98385.84
2023-04-12T18:52:07.799Z,98386.41
2023-04-12T18:54:49.649Z,98386.03
2023-04-12T18:57:31.193Z,98379.75
2023-04-12T19:00:21.746Z,98380.19
2023-04-12T19:03:08.640Z,98373.00
2023-04-12T19:05:46.664Z,98366.38
2023-04-12T19:08:22.981Z,98374.84
2023-04-12T19:10:53.561Z,98367.38
2023-04-12T19:13:35.373Z,98369.88
2023-04-12T19:16:20.440Z,98364.31
2023-04-12T19:19:01.758Z,98366.00
2023-04-12T19:21:44.121Z,98373.81
2023-04-12T19:24:24.226Z,98384.28
2023-04-12T19:30:00.978Z,98401.09
2023-04-12T19:32:33.038Z,98393.25
2023-04-12T19:35:10.257Z,98390.19
2023-04-12T19:37:43.208Z,98391.84
2023-04-12T19:40:23.437Z,98385.31
2023-04-12T19:43:13.331Z,98389.16
2023-04-12T19:46:02.711Z,98372.38
2023-04-12T19:48:39.848Z,98367.69
2023-04-12T19:51:12.528Z,98366.38
2023-04-12T19:53:48.597Z,98365.75
2023-04-12T19:56:26.685Z,98369.44
2023-04-12T19:59:07.064Z,98364.34
2023-04-12T20:01:50.693Z,98353.38
2023-04-12T20:07:29.435Z,98359.63
2023-04-12T20:10:10.854Z,98366.09
2023-04-12T20:12:48.145Z,98352.03
2023-04-12T20:15:24.127Z,98357.91
2023-04-12T20:17:53.368Z,98354.00
2023-04-12T20:20:32.854Z,98358.78
2023-04-12T20:23:05.955Z,98358.69
2023-04-12T20:25:39.837Z,98359.16
2023-04-12T20:28:12.831Z,98352.97
2023-04-12T20:30:54.003Z,98348.56
2023-04-12T20:33:29.073Z,98344.69
2023-04-12T20:36:07.799Z,98339.78
2023-04-12T20:38:37.310Z,98344.50
2023-04-12T20:41:17.670Z,98332.88
2023-04-12T20:43:59.821Z,98320.69
2023-04-12T20:46:50.806Z,98324.75
2023-04-12T20:49:37.162Z,98328.63
2023-04-12T20:52:13.071Z,98319.22
2023-04-12T20:54:59.278Z,98323.38
2023-04-12T20:57:46.720Z,98321.34
2023-04-12T21:00:23.834Z,98315.44
2023-04-12T21:02:58.834Z,98313.59
2023-04-12T21:05:41.021Z,98308.41
2023-04-12T21:08:17.740Z,98314.06
2023-04-12T21:10:48.818Z,98314.31
2023-04-12T21:13:22.829Z,98311.03
2023-04-12T21:15:52.597Z,98306.97
2023-04-12T21:18:32.385Z,98291.09
2023-04-12T21:21:08.129Z,98299.13
2023-04-12T21:23:41.776Z,98297.66
2023-04-12T21:26:18.511Z,98296.38
2023-04-12T21:28:50.034Z,98286.03
2023-04-12T21:31:21.945Z,98292.56
2023-04-12T21:34:02.893Z,98292.75
2023-04-12T21:36:33.456Z,98291.09
2023-04-12T21:39:13.331Z,98299.84
2023-04-12T21:41:44.578Z,98302.09
2023-04-12T21:44:17.093Z,98295.53
2023-04-12T21:46:47.239Z,98286.47
2023-04-12T21:49:29.165Z,98288.06
2023-04-12T21:52:02.854Z,98279.00
2023-04-12T21:54:39.521Z,98276.81
2023-04-12T21:57:09.910Z,98278.09
2023-04-12T21:59:41.784Z,98281.59
2023-04-12T22:02:17.557Z,98280.03
2023-04-12T22:05:03.021Z,98283.91
2023-04-12T22:07:35.488Z,98287.69
2023-04-12T22:10:08.149Z,98277.63
2023-04-12T22:12:39.809Z,98281.84
2023-04-12T22:15:15.189Z,98277.34
2023-04-12T22:17:45.283Z,98283.91
2023-04-12T22:20:18.833Z,98276.06
2023-04-12T22:22:48.527Z,98265.91
2023-04-12T22:25:24.783Z,98272.75
2023-04-12T22:27:57.883Z,98282.03
2023-04-12T22:30:27.247Z,98279.38
2023-04-12T22:32:58.093Z,98272.44
2023-04-12T22:35:40.703Z,98269.16
2023-04-12T22:38:12.413Z,98271.63
2023-04-12T22:40:46.288Z,98275.06
2023-04-12T22:43:25.841Z,98275.59
2023-04-12T22:46:02.190Z,98270.34
2023-04-12T22:48:33.548Z,98285.38
2023-04-12T22:51:09.976Z,98285.63
2023-04-12T22:53:41.230Z,98277.06
2023-04-12T22:56:16.009Z,98269.88
2023-04-12T22:58:50.180Z,98280.47
2023-04-12T23:01:22.052Z,98279.38
2023-04-12T23:03:51.187Z,98272.09
2023-04-12T23:06:25.777Z,98272.09
2023-04-12T23:09:02.563Z,98278.06
2023-04-12T23:11:35.026Z,98271.09
2023-04-12T23:14:04.824Z,98268.13
2023-04-12T23:16:43.591Z,98269.97
2023-04-12T23:19:14.920Z,98259.84
2023-04-12T23:21:55.050Z,98256.50
2023-04-12T23:24:32.470Z,98259.19
2023-04-12T23:27:23.037Z,98264.72
2023-04-12T23:29:52.849Z,98264.53
2023-04-12T23:32:22.240Z,98253.09
2023-04-12T23:34:52.759Z,98252.09
2023-04-12T23:37:23.826Z,98242.31
2023-04-12T23:39:52.398Z,98252.00
2023-04-12T23:42:31.885Z,98244.88
2023-04-12T23:45:06.057Z,98250.25
2023-04-12T23:47:40.647Z,98253.34
2023-04-12T23:50:18.449Z,98243.94
2023-04-12T23:52:50.058Z,98246.34
2023-04-12T23:55:23.371Z,98250.41
2023-04-12T23:58:01.642Z,98248.09
